sensor_id;sensor_type;location;lat;lon;timestamp;temperature;humidity
5621;DHT22;2832;50.864;12.186;2022-11-23T00:01:33;9.20;99.90
5621;DHT22;2832;50.864;12.186;2022-11-23T00:04:02;9.20;99.90
5621;DHT22;2832;50.864;12.186;2022-11-23T00:06:33;9.20;99.90
5621;DHT22;2832;50.864;12.186;2022-11-23T00:09:02;9.20;99.90
5621;DHT22;2832;50.864;12.186;2022-11-23T00:11:30;9.20;99.90
5621;DHT22;2832;50.864;12.186;2022-11-23T00:13:59;9.20;99.90
5621;DHT22;2832;50.864;12.186;2022-11-23T00:16:28;9.10;99.90
5621;DHT22;2832;50.864;12.186;2022-11-23T00:18:58;9.10;99.90
5621;DHT22;2832;50.864;12.186;2022-11-23T00:21:28;9.20;99.90
5621;DHT22;2832;50.864;12.186;2022-11-23T00:23:58;9.20;99.90
5621;DHT22;2832;50.864;12.186;2022-11-23T00:26:26;9.10;99.90
5621;DHT22;2832;50.864;12.186;2022-11-23T00:28:55;9.20;99.90
5621;DHT22;2832;50.864;12.186;2022-11-23T00:31:23;9.20;99.90
5621;DHT22;2832;50.864;12.186;2022-11-23T00:33:53;9.20;99.90
5621;DHT22;2832;50.864;12.186;2022-11-23T00:36:22;9.20;99.90
5621;DHT22;2832;50.864;12.186;2022-11-23T00:38:51;9.20;99.90
5621;DHT22;2832;50.864;12.186;2022-11-23T00:41:23;9.10;99.90
5621;DHT22;2832;50.864;12.186;2022-11-23T00:43:51;9.10;99.90
5621;DHT22;2832;50.864;12.186;2022-11-23T00:46:22;9.10;99.90
5621;DHT22;2832;50.864;12.186;2022-11-23T00:48:52;9.10;99.90
5621;DHT22;2832;50.864;12.186;2022-11-23T00:51:22;9.10;99.90
5621;DHT22;2832;50.864;12.186;2022-11-23T00:53:50;9.20;99.90
5621;DHT22;2832;50.864;12.186;2022-11-23T00:56:20;9.10;99.90
5621;DHT22;2832;50.864;12.186;2022-11-23T00:58:49;9.10;99.90
5621;DHT22;2832;50.864;12.186;2022-11-23T01:01:19;9.10;99.90
5621;DHT22;2832;50.864;12.186;2022-11-23T01:03:48;9.10;99.90
5621;DHT22;2832;50.864;12.186;2022-11-23T01:06:18;9.10;99.90
5621;DHT22;2832;50.864;12.186;2022-11-23T01:08:48;9.10;99.90
5621;DHT22;2832;50.864;12.186;2022-11-23T01:11:17;9.10;99.90
5621;DHT22;2832;50.864;12.186;2022-11-23T01:13:48;9.20;99.90
5621;DHT22;2832;50.864;12.186;2022-11-23T01:16:18;9.10;99.90
5621;DHT22;2832;50.864;12.186;2022-11-23T01:18:46;9.10;99.90
5621;DHT22;2832;50.864;12.186;2022-11-23T01:21:14;9.10;99.90
5621;DHT22;2832;50.864;12.186;2022-11-23T01:23:41;9.10;99.90
5621;DHT22;2832;50.864;12.186;2022-11-23T01:26:09;9.00;99.90
5621;DHT22;2832;50.864;12.186;2022-11-23T01:28:39;8.90;99.90
5621;DHT22;2832;50.864;12.186;2022-11-23T01:31:11;9.00;99.90
5621;DHT22;2832;50.864;12.186;2022-11-23T01:33:39;9.00;99.90
5621;DHT22;2832;50.864;12.186;2022-11-23T01:36:09;9.10;99.90
5621;DHT22;2832;50.864;12.186;2022-11-23T01:38:37;9.10;99.90
5621;DHT22;2832;50.864;12.186;2022-11-23T01:41:05;9.00;99.90
5621;DHT22;2832;50.864;12.186;2022-11-23T01:43:33;9.00;99.90
5621;DHT22;2832;50.864;12.186;2022-11-23T01:46:02;9.00;99.90
5621;DHT22;2832;50.864;12.186;2022-11-23T01:48:35;9.10;99.90
5621;DHT22;2832;50.864;12.186;2022-11-23T01:51:07;9.20;99.90
5621;DHT22;2832;50.864;12.186;2022-11-23T01:53:36;9.10;99.90
5621;DHT22;2832;50.864;12.186;2022-11-23T01:56:08;9.20;99.90
5621;DHT22;2832;50.864;12.186;2022-11-23T01:58:41;9.10;99.90
5621;DHT22;2832;50.864;12.186;2022-11-23T02:01:10;9.20;99.90
5621;DHT22;2832;50.864;12.186;2022-11-23T02:03:41;9.20;99.90
5621;DHT22;2832;50.864;12.186;2022-11-23T02:06:14;9.10;99.90
5621;DHT22;2832;50.864;12.186;2022-11-23T02:08:44;9.10;99.90
5621;DHT22;2832;50.864;12.186;2022-11-23T02:11:13;9.10;99.90
5621;DHT22;2832;50.864;12.186;2022-11-23T02:13:42;9.10;99.90
5621;DHT22;2832;50.864;12.186;2022-11-23T02:16:11;9.10;99.90
5621;DHT22;2832;50.864;12.186;2022-11-23T02:18:43;9.00;99.90
5621;DHT22;2832;50.864;12.186;2022-11-23T02:21:11;9.10;99.90
5621;DHT22;2832;50.864;12.186;2022-11-23T02:23:47;9.00;99.90
5621;DHT22;2832;50.864;12.186;2022-11-23T02:26:20;9.00;99.90
5621;DHT22;2832;50.864;12.186;2022-11-23T02:28:53;9.00;99.90
5621;DHT22;2832;50.864;12.186;2022-11-23T02:31:23;9.00;99.90
5621;DHT22;2832;50.864;12.186;2022-11-23T02:33:51;9.00;99.90
5621;DHT22;2832;50.864;12.186;2022-11-23T02:36:35;9.10;99.90
5621;DHT22;2832;50.864;12.186;2022-11-23T02:39:06;9.00;99.90
5621;DHT22;2832;50.864;12.186;2022-11-23T02:41:39;9.10;99.90
5621;DHT22;2832;50.864;12.186;2022-11-23T02:44:13;9.10;99.90
5621;DHT22;2832;50.864;12.186;2022-11-23T02:46:44;9.10;99.90
5621;DHT22;2832;50.864;12.186;2022-11-23T02:49:12;9.10;99.90
5621;DHT22;2832;50.864;12.186;2022-11-23T02:51:41;9.10;99.90
5621;DHT22;2832;50.864;12.186;2022-11-23T02:54:09;9.10;99.90
5621;DHT22;2832;50.864;12.186;2022-11-23T02:56:38;9.10;99.90
5621;DHT22;2832;50.864;12.186;2022-11-23T02:59:06;9.00;99.90
5621;DHT22;2832;50.864;12.186;2022-11-23T03:01:34;9.00;99.90
5621;DHT22;2832;50.864;12.186;2022-11-23T03:04:02;9.10;99.90
5621;DHT22;2832;50.864;12.186;2022-11-23T03:06:29;9.10;99.90
5621;DHT22;2832;50.864;12.186;2022-11-23T03:08:57;9.10;99.90
5621;DHT22;2832;50.864;12.186;2022-11-23T03:11:25;9.10;99.90
5621;DHT22;2832;50.864;12.186;2022-11-23T03:13:54;9.10;99.90
5621;DHT22;2832;50.864;12.186;2022-11-23T03:16:22;9.10;99.90
5621;DHT22;2832;50.864;12.186;2022-11-23T03:18:50;9.10;99.90
5621;DHT22;2832;50.864;12.186;2022-11-23T03:21:19;9.10;99.90
5621;DHT22;2832;50.864;12.186;2022-11-23T03:23:47;9.10;99.90
5621;DHT22;2832;50.864;12.186;2022-11-23T03:26:15;9.10;99.90
5621;DHT22;2832;50.864;12.186;2022-11-23T03:28:43;9.00;99.90
5621;DHT22;2832;50.864;12.186;2022-11-23T03:31:13;9.10;99.90
5621;DHT22;2832;50.864;12.186;2022-11-23T03:33:40;9.10;99.90
5621;DHT22;2832;50.864;12.186;2022-11-23T03:36:09;9.10;99.90
5621;DHT22;2832;50.864;12.186;2022-11-23T03:38:36;9.10;99.90
5621;DHT22;2832;50.864;12.186;2022-11-23T03:41:04;9.10;99.90
5621;DHT22;2832;50.864;12.186;2022-11-23T03:43:32;9.10;99.90
5621;DHT22;2832;50.864;12.186;2022-11-23T03:46:00;9.10;99.90
5621;DHT22;2832;50.864;12.186;2022-11-23T03:48:29;9.00;99.90
5621;DHT22;2832;50.864;12.186;2022-11-23T03:50:57;9.10;99.90
5621;DHT22;2832;50.864;12.186;2022-11-23T03:53:25;9.10;99.90
5621;DHT22;2832;50.864;12.186;2022-11-23T03:55:52;9.10;99.90
5621;DHT22;2832;50.864;12.186;2022-11-23T03:58:22;9.20;99.90
5621;DHT22;2832;50.864;12.186;2022-11-23T04:00:51;9.20;99.90
5621;DHT22;2832;50.864;12.186;2022-11-23T04:03:18;9.40;99.90
5621;DHT22;2832;50.864;12.186;2022-11-23T04:05:47;9.40;99.90
5621;DHT22;2832;50.864;12.186;2022-11-23T04:08:15;9.50;99.90
5621;DHT22;2832;50.864;12.186;2022-11-23T04:10:43;9.60;99.90
5621;DHT22;2832;50.864;12.186;2022-11-23T04:13:11;9.70;99.90
5621;DHT22;2832;50.864;12.186;2022-11-23T04:15:38;9.70;99.90
5621;DHT22;2832;50.864;12.186;2022-11-23T04:18:06;9.80;99.90
5621;DHT22;2832;50.864;12.186;2022-11-23T04:20:34;9.80;99.90
5621;DHT22;2832;50.864;12.186;2022-11-23T04:23:03;9.80;99.90
5621;DHT22;2832;50.864;12.186;2022-11-23T04:25:31;9.80;99.90
5621;DHT22;2832;50.864;12.186;2022-11-23T04:27:59;9.70;99.90
5621;DHT22;2832;50.864;12.186;2022-11-23T04:30:26;9.60;99.90
5621;DHT22;2832;50.864;12.186;2022-11-23T04:32:54;9.60;99.90
5621;DHT22;2832;50.864;12.186;2022-11-23T04:35:22;9.40;99.90
5621;DHT22;2832;50.864;12.186;2022-11-23T04:37:50;9.50;99.90
5621;DHT22;2832;50.864;12.186;2022-11-23T04:40:19;9.40;99.90
5621;DHT22;2832;50.864;12.186;2022-11-23T04:42:46;9.40;99.90
5621;DHT22;2832;50.864;12.186;2022-11-23T04:45:14;9.40;99.90
5621;DHT22;2832;50.864;12.186;2022-11-23T04:47:43;9.40;99.90
5621;DHT22;2832;50.864;12.186;2022-11-23T04:50:11;9.30;99.90
5621;DHT22;2832;50.864;12.186;2022-11-23T04:52:40;9.30;99.90
5621;DHT22;2832;50.864;12.186;2022-11-23T04:55:12;9.30;99.90
5621;DHT22;2832;50.864;12.186;2022-11-23T04:57:43;9.30;99.90
5621;DHT22;2832;50.864;12.186;2022-11-23T05:00:12;9.30;99.90
5621;DHT22;2832;50.864;12.186;2022-11-23T05:02:41;9.30;99.90
5621;DHT22;2832;50.864;12.186;2022-11-23T05:05:09;9.30;99.90
5621;DHT22;2832;50.864;12.186;2022-11-23T05:07:37;9.30;99.90
5621;DHT22;2832;50.864;12.186;2022-11-23T05:10:05;9.30;99.90
5621;DHT22;2832;50.864;12.186;2022-11-23T05:12:33;9.40;99.90
5621;DHT22;2832;50.864;12.186;2022-11-23T05:15:03;9.40;99.90
5621;DHT22;2832;50.864;12.186;2022-11-23T05:17:31;9.50;99.90
5621;DHT22;2832;50.864;12.186;2022-11-23T05:19:59;9.60;99.90
5621;DHT22;2832;50.864;12.186;2022-11-23T05:22:27;9.60;99.90
5621;DHT22;2832;50.864;12.186;2022-11-23T05:24:55;9.70;99.90
5621;DHT22;2832;50.864;12.186;2022-11-23T05:27:22;9.60;99.90
5621;DHT22;2832;50.864;12.186;2022-11-23T05:29:51;9.50;99.90
5621;DHT22;2832;50.864;12.186;2022-11-23T05:32:20;9.40;99.90
5621;DHT22;2832;50.864;12.186;2022-11-23T05:34:48;9.20;99.90
5621;DHT22;2832;50.864;12.186;2022-11-23T05:37:16;9.10;99.90
5621;DHT22;2832;50.864;12.186;2022-11-23T05:39:44;9.00;99.90
5621;DHT22;2832;50.864;12.186;2022-11-23T05:42:12;8.80;99.90
5621;DHT22;2832;50.864;12.186;2022-11-23T05:44:40;8.70;99.90
5621;DHT22;2832;50.864;12.186;2022-11-23T05:47:08;8.60;99.90
5621;DHT22;2832;50.864;12.186;2022-11-23T05:49:42;8.60;99.90
5621;DHT22;2832;50.864;12.186;2022-11-23T05:52:10;8.50;99.90
5621;DHT22;2832;50.864;12.186;2022-11-23T05:54:38;8.50;99.90
5621;DHT22;2832;50.864;12.186;2022-11-23T05:57:09;8.40;99.90
5621;DHT22;2832;50.864;12.186;2022-11-23T05:59:36;8.30;99.90
5621;DHT22;2832;50.864;12.186;2022-11-23T06:02:04;8.30;99.90
5621;DHT22;2832;50.864;12.186;2022-11-23T06:04:34;8.20;99.90
5621;DHT22;2832;50.864;12.186;2022-11-23T06:07:03;8.20;99.90
5621;DHT22;2832;50.864;12.186;2022-11-23T06:12:45;8.10;99.90
5621;DHT22;2832;50.864;12.186;2022-11-23T06:24:34;8.10;99.90
5621;DHT22;2832;50.864;12.186;2022-11-23T06:27:02;8.10;99.90
5621;DHT22;2832;50.864;12.186;2022-11-23T06:29:30;8.10;99.90
5621;DHT22;2832;50.864;12.186;2022-11-23T06:31:59;8.10;99.90
5621;DHT22;2832;50.864;12.186;2022-11-23T06:34:28;8.10;99.90
5621;DHT22;2832;50.864;12.186;2022-11-23T06:36:56;8.00;99.90
5621;DHT22;2832;50.864;12.186;2022-11-23T06:39:25;8.00;99.90
5621;DHT22;2832;50.864;12.186;2022-11-23T06:41:54;7.90;99.90
5621;DHT22;2832;50.864;12.186;2022-11-23T06:44:23;7.90;99.90
5621;DHT22;2832;50.864;12.186;2022-11-23T06:46:50;7.80;99.90
5621;DHT22;2832;50.864;12.186;2022-11-23T06:49:20;7.80;99.90
5621;DHT22;2832;50.864;12.186;2022-11-23T06:51:48;7.90;99.90
5621;DHT22;2832;50.864;12.186;2022-11-23T06:54:16;7.80;99.90
5621;DHT22;2832;50.864;12.186;2022-11-23T06:56:44;7.80;99.90
5621;DHT22;2832;50.864;12.186;2022-11-23T06:59:13;7.80;99.90
5621;DHT22;2832;50.864;12.186;2022-11-23T07:01:41;7.80;99.90
5621;DHT22;2832;50.864;12.186;2022-11-23T07:04:09;7.80;99.90
5621;DHT22;2832;50.864;12.186;2022-11-23T07:06:39;7.80;99.90
5621;DHT22;2832;50.864;12.186;2022-11-23T07:09:08;7.80;99.90
5621;DHT22;2832;50.864;12.186;2022-11-23T07:11:35;7.80;99.90
5621;DHT22;2832;50.864;12.186;2022-11-23T07:14:03;7.80;99.90
5621;DHT22;2832;50.864;12.186;2022-11-23T07:16:32;7.80;99.90
5621;DHT22;2832;50.864;12.186;2022-11-23T07:19:01;7.80;99.90
5621;DHT22;2832;50.864;12.186;2022-11-23T07:21:28;7.70;99.90
5621;DHT22;2832;50.864;12.186;2022-11-23T07:23:56;7.70;99.90
5621;DHT22;2832;50.864;12.186;2022-11-23T07:26:24;7.70;99.90
5621;DHT22;2832;50.864;12.186;2022-11-23T07:28:51;7.80;99.90
5621;DHT22;2832;50.864;12.186;2022-11-23T07:31:19;7.70;99.90
5621;DHT22;2832;50.864;12.186;2022-11-23T07:33:50;7.70;99.90
5621;DHT22;2832;50.864;12.186;2022-11-23T07:36:18;7.70;99.90
5621;DHT22;2832;50.864;12.186;2022-11-23T07:38:47;7.70;99.90
5621;DHT22;2832;50.864;12.186;2022-11-23T07:41:16;7.60;99.90
5621;DHT22;2832;50.864;12.186;2022-11-23T07:43:44;7.60;99.90
5621;DHT22;2832;50.864;12.186;2022-11-23T07:46:11;7.60;99.90
5621;DHT22;2832;50.864;12.186;2022-11-23T07:48:39;7.50;99.90
5621;DHT22;2832;50.864;12.186;2022-11-23T07:51:09;7.50;99.90
5621;DHT22;2832;50.864;12.186;2022-11-23T07:53:37;7.50;99.90
5621;DHT22;2832;50.864;12.186;2022-11-23T07:56:06;7.50;99.90
5621;DHT22;2832;50.864;12.186;2022-11-23T07:58:34;7.50;99.90
5621;DHT22;2832;50.864;12.186;2022-11-23T08:01:02;7.40;99.90
5621;DHT22;2832;50.864;12.186;2022-11-23T08:03:30;7.40;99.90
5621;DHT22;2832;50.864;12.186;2022-11-23T08:05:58;7.50;99.90
5621;DHT22;2832;50.864;12.186;2022-11-23T08:08:28;7.50;99.90
5621;DHT22;2832;50.864;12.186;2022-11-23T08:10:56;7.50;99.90
5621;DHT22;2832;50.864;12.186;2022-11-23T08:13:25;7.50;99.90
5621;DHT22;2832;50.864;12.186;2022-11-23T08:15:53;7.50;99.90
5621;DHT22;2832;50.864;12.186;2022-11-23T08:18:21;7.60;99.90
5621;DHT22;2832;50.864;12.186;2022-11-23T08:20:49;7.50;99.90
5621;DHT22;2832;50.864;12.186;2022-11-23T08:23:17;7.50;99.90
5621;DHT22;2832;50.864;12.186;2022-11-23T08:25:47;7.70;99.90
5621;DHT22;2832;50.864;12.186;2022-11-23T08:28:15;7.80;99.90
5621;DHT22;2832;50.864;12.186;2022-11-23T08:30:42;7.90;99.90
5621;DHT22;2832;50.864;12.186;2022-11-23T08:33:11;8.10;99.90
5621;DHT22;2832;50.864;12.186;2022-11-23T08:35:40;8.30;99.90
5621;DHT22;2832;50.864;12.186;2022-11-23T08:38:09;8.50;99.90
5621;DHT22;2832;50.864;12.186;2022-11-23T08:40:38;8.60;99.90
5621;DHT22;2832;50.864;12.186;2022-11-23T08:43:08;8.70;99.90
5621;DHT22;2832;50.864;12.186;2022-11-23T08:45:37;8.80;99.90
5621;DHT22;2832;50.864;12.186;2022-11-23T08:48:05;8.90;99.90
5621;DHT22;2832;50.864;12.186;2022-11-23T08:50:35;8.90;99.90
5621;DHT22;2832;50.864;12.186;2022-11-23T08:53:04;9.10;99.90
5621;DHT22;2832;50.864;12.186;2022-11-23T08:55:31;9.10;99.90
5621;DHT22;2832;50.864;12.186;2022-11-23T08:57:59;9.10;99.90
5621;DHT22;2832;50.864;12.186;2022-11-23T09:00:30;9.20;99.90
5621;DHT22;2832;50.864;12.186;2022-11-23T09:02:58;9.30;99.90
5621;DHT22;2832;50.864;12.186;2022-11-23T09:05:26;9.30;99.90
5621;DHT22;2832;50.864;12.186;2022-11-23T09:07:54;9.30;99.90
5621;DHT22;2832;50.864;12.186;2022-11-23T09:10:22;9.30;99.90
5621;DHT22;2832;50.864;12.186;2022-11-23T09:12:50;9.40;99.90
5621;DHT22;2832;50.864;12.186;2022-11-23T09:15:18;9.40;99.90
5621;DHT22;2832;50.864;12.186;2022-11-23T09:17:48;9.50;99.90
5621;DHT22;2832;50.864;12.186;2022-11-23T09:20:15;9.50;99.90
5621;DHT22;2832;50.864;12.186;2022-11-23T09:22:49;9.40;99.90
5621;DHT22;2832;50.864;12.186;2022-11-23T09:25:17;9.40;99.90
5621;DHT22;2832;50.864;12.186;2022-11-23T09:27:46;9.30;99.90
5621;DHT22;2832;50.864;12.186;2022-11-23T09:30:15;9.30;99.90
5621;DHT22;2832;50.864;12.186;2022-11-23T09:32:43;9.30;99.90
5621;DHT22;2832;50.864;12.186;2022-11-23T09:35:12;9.20;99.90
5621;DHT22;2832;50.864;12.186;2022-11-23T09:37:40;9.30;99.90
5621;DHT22;2832;50.864;12.186;2022-11-23T09:40:09;9.30;99.90
5621;DHT22;2832;50.864;12.186;2022-11-23T09:45:42;9.20;99.90
5621;DHT22;2832;50.864;12.186;2022-11-23T09:48:35;9.10;99.90
5621;DHT22;2832;50.864;12.186;2022-11-23T09:51:13;9.10;99.90
5621;DHT22;2832;50.864;12.186;2022-11-23T09:53:45;9.10;99.90
5621;DHT22;2832;50.864;12.186;2022-11-23T09:56:17;9.20;99.90
5621;DHT22;2832;50.864;12.186;2022-11-23T09:58:46;9.10;99.90
5621;DHT22;2832;50.864;12.186;2022-11-23T10:01:20;9.10;99.90
5621;DHT22;2832;50.864;12.186;2022-11-23T10:03:49;9.10;99.90
5621;DHT22;2832;50.864;12.186;2022-11-23T10:06:21;9.00;99.90
5621;DHT22;2832;50.864;12.186;2022-11-23T10:09:14;9.00;99.90
5621;DHT22;2832;50.864;12.186;2022-11-23T10:12:13;8.90;99.90
5621;DHT22;2832;50.864;12.186;2022-11-23T10:14:56;8.70;99.90
5621;DHT22;2832;50.864;12.186;2022-11-23T10:17:34;8.60;99.90
5621;DHT22;2832;50.864;12.186;2022-11-23T10:20:20;8.50;99.90
5621;DHT22;2832;50.864;12.186;2022-11-23T10:22:58;8.40;99.90
5621;DHT22;2832;50.864;12.186;2022-11-23T10:25:32;8.40;99.90
5621;DHT22;2832;50.864;12.186;2022-11-23T10:28:05;8.40;99.90
5621;DHT22;2832;50.864;12.186;2022-11-23T10:30:33;8.40;99.90
5621;DHT22;2832;50.864;12.186;2022-11-23T10:33:08;8.30;99.90
5621;DHT22;2832;50.864;12.186;2022-11-23T10:35:39;8.30;99.90
5621;DHT22;2832;50.864;12.186;2022-11-23T10:38:14;8.30;99.90
5621;DHT22;2832;50.864;12.186;2022-11-23T10:40:48;8.30;99.90
5621;DHT22;2832;50.864;12.186;2022-11-23T10:43:21;8.30;99.90
5621;DHT22;2832;50.864;12.186;2022-11-23T10:45:50;8.30;99.90
5621;DHT22;2832;50.864;12.186;2022-11-23T10:48:33;8.30;99.90
5621;DHT22;2832;50.864;12.186;2022-11-23T10:51:18;8.30;99.90
5621;DHT22;2832;50.864;12.186;2022-11-23T10:53:53;8.30;99.90
5621;DHT22;2832;50.864;12.186;2022-11-23T10:56:23;8.30;99.90
5621;DHT22;2832;50.864;12.186;2022-11-23T10:58:52;8.30;99.90
5621;DHT22;2832;50.864;12.186;2022-11-23T11:01:21;8.30;99.90
5621;DHT22;2832;50.864;12.186;2022-11-23T11:03:51;8.20;99.90
5621;DHT22;2832;50.864;12.186;2022-11-23T11:06:24;8.20;99.90
5621;DHT22;2832;50.864;12.186;2022-11-23T11:08:56;8.20;99.90
5621;DHT22;2832;50.864;12.186;2022-11-23T11:11:26;8.20;99.90
5621;DHT22;2832;50.864;12.186;2022-11-23T11:14:04;8.20;99.90
5621;DHT22;2832;50.864;12.186;2022-11-23T11:16:33;8.30;99.90
5621;DHT22;2832;50.864;12.186;2022-11-23T11:19:21;8.20;99.90
5621;DHT22;2832;50.864;12.186;2022-11-23T11:21:49;8.30;99.90
5621;DHT22;2832;50.864;12.186;2022-11-23T11:24:25;8.30;99.90
5621;DHT22;2832;50.864;12.186;2022-11-23T11:26:58;8.20;99.90
5621;DHT22;2832;50.864;12.186;2022-11-23T11:29:31;8.20;99.90
5621;DHT22;2832;50.864;12.186;2022-11-23T11:32:01;8.20;99.90
5621;DHT22;2832;50.864;12.186;2022-11-23T11:34:34;8.20;99.90
5621;DHT22;2832;50.864;12.186;2022-11-23T11:37:08;8.20;99.90
5621;DHT22;2832;50.864;12.186;2022-11-23T11:39:44;8.30;99.90
5621;DHT22;2832;50.864;12.186;2022-11-23T11:42:20;8.30;99.90
5621;DHT22;2832;50.864;12.186;2022-11-23T11:44:56;8.30;99.90
5621;DHT22;2832;50.864;12.186;2022-11-23T11:47:36;8.30;99.90
5621;DHT22;2832;50.864;12.186;2022-11-23T11:50:17;8.30;99.90
5621;DHT22;2832;50.864;12.186;2022-11-23T11:52:47;8.20;99.90
5621;DHT22;2832;50.864;12.186;2022-11-23T11:55:22;8.30;99.90
5621;DHT22;2832;50.864;12.186;2022-11-23T11:57:54;8.40;99.90
5621;DHT22;2832;50.864;12.186;2022-11-23T12:00:25;8.30;99.90
5621;DHT22;2832;50.864;12.186;2022-11-23T12:03:03;8.30;99.90
5621;DHT22;2832;50.864;12.186;2022-11-23T12:05:38;8.30;99.90
5621;DHT22;2832;50.864;12.186;2022-11-23T12:08:12;8.30;99.90
5621;DHT22;2832;50.864;12.186;2022-11-23T12:10:47;8.40;99.90
5621;DHT22;2832;50.864;12.186;2022-11-23T12:13:18;8.40;99.90
5621;DHT22;2832;50.864;12.186;2022-11-23T12:15:49;8.40;99.90
5621;DHT22;2832;50.864;12.186;2022-11-23T12:24:37;8.40;99.90
5621;DHT22;2832;50.864;12.186;2022-11-23T12:27:18;8.40;99.90
5621;DHT22;2832;50.864;12.186;2022-11-23T12:30:01;8.40;99.90
5621;DHT22;2832;50.864;12.186;2022-11-23T12:32:39;8.40;99.90
5621;DHT22;2832;50.864;12.186;2022-11-23T12:38:23;8.40;99.90
5621;DHT22;2832;50.864;12.186;2022-11-23T12:41:13;8.40;99.90
5621;DHT22;2832;50.864;12.186;2022-11-23T12:44:20;8.50;99.90
5621;DHT22;2832;50.864;12.186;2022-11-23T12:46:57;8.50;99.90
5621;DHT22;2832;50.864;12.186;2022-11-23T12:49:37;8.50;99.90
5621;DHT22;2832;50.864;12.186;2022-11-23T12:52:22;8.60;99.90
5621;DHT22;2832;50.864;12.186;2022-11-23T12:55:01;8.60;99.90
5621;DHT22;2832;50.864;12.186;2022-11-23T12:57:37;8.60;99.90
5621;DHT22;2832;50.864;12.186;2022-11-23T13:00:13;8.70;99.90
5621;DHT22;2832;50.864;12.186;2022-11-23T13:06:23;8.70;99.90
5621;DHT22;2832;50.864;12.186;2022-11-23T13:09:08;8.80;99.90
5621;DHT22;2832;50.864;12.186;2022-11-23T13:11:53;8.70;99.90
5621;DHT22;2832;50.864;12.186;2022-11-23T13:14:32;8.80;99.90
5621;DHT22;2832;50.864;12.186;2022-11-23T13:17:23;8.80;99.90
5621;DHT22;2832;50.864;12.186;2022-11-23T13:20:17;8.80;99.90
5621;DHT22;2832;50.864;12.186;2022-11-23T13:22:48;9.00;99.90
5621;DHT22;2832;50.864;12.186;2022-11-23T13:25:22;9.00;99.90
5621;DHT22;2832;50.864;12.186;2022-11-23T13:27:58;9.00;99.90
5621;DHT22;2832;50.864;12.186;2022-11-23T13:30:32;9.00;99.90
5621;DHT22;2832;50.864;12.186;2022-11-23T13:35:58;9.00;99.90
5621;DHT22;2832;50.864;12.186;2022-11-23T13:38:36;9.00;99.90
5621;DHT22;2832;50.864;12.186;2022-11-23T13:44:18;9.00;99.90
5621;DHT22;2832;50.864;12.186;2022-11-23T13:46:56;9.00;99.90
5621;DHT22;2832;50.864;12.186;2022-11-23T13:49:32;9.00;99.90
5621;DHT22;2832;50.864;12.186;2022-11-23T13:52:23;9.10;99.90
5621;DHT22;2832;50.864;12.186;2022-11-23T13:55:14;9.10;99.90
5621;DHT22;2832;50.864;12.186;2022-11-23T14:00:58;9.10;99.90
5621;DHT22;2832;50.864;12.186;2022-11-23T14:03:48;9.20;99.90
5621;DHT22;2832;50.864;12.186;2022-11-23T14:06:25;9.20;99.90
5621;DHT22;2832;50.864;12.186;2022-11-23T14:09:02;9.20;99.90
5621;DHT22;2832;50.864;12.186;2022-11-23T14:11:36;9.20;99.90
5621;DHT22;2832;50.864;12.186;2022-11-23T14:14:16;9.10;99.90
5621;DHT22;2832;50.864;12.186;2022-11-23T14:20:13;9.20;99.90
5621;DHT22;2832;50.864;12.186;2022-11-23T14:22:59;9.10;99.90
5621;DHT22;2832;50.864;12.186;2022-11-23T14:25:44;9.20;99.90
5621;DHT22;2832;50.864;12.186;2022-11-23T14:28:25;9.20;99.90
5621;DHT22;2832;50.864;12.186;2022-11-23T14:31:07;9.30;99.90
5621;DHT22;2832;50.864;12.186;2022-11-23T14:33:43;9.30;99.90
5621;DHT22;2832;50.864;12.186;2022-11-23T14:36:22;9.30;99.90
5621;DHT22;2832;50.864;12.186;2022-11-23T14:39:41;9.30;99.90
5621;DHT22;2832;50.864;12.186;2022-11-23T14:42:14;9.30;99.90
5621;DHT22;2832;50.864;12.186;2022-11-23T14:44:43;9.40;99.90
5621;DHT22;2832;50.864;12.186;2022-11-23T14:47:11;9.40;99.90
5621;DHT22;2832;50.864;12.186;2022-11-23T14:49:48;9.40;99.90
5621;DHT22;2832;50.864;12.186;2022-11-23T14:52:18;9.50;99.90
5621;DHT22;2832;50.864;12.186;2022-11-23T14:54:49;9.50;99.90
5621;DHT22;2832;50.864;12.186;2022-11-23T14:57:20;9.50;99.90
5621;DHT22;2832;50.864;12.186;2022-11-23T14:59:51;9.50;99.90
5621;DHT22;2832;50.864;12.186;2022-11-23T15:02:22;9.50;99.90
5621;DHT22;2832;50.864;12.186;2022-11-23T15:04:58;9.50;99.90
5621;DHT22;2832;50.864;12.186;2022-11-23T15:07:42;9.60;99.90
5621;DHT22;2832;50.864;12.186;2022-11-23T15:10:29;9.60;99.90
5621;DHT22;2832;50.864;12.186;2022-11-23T15:13:00;9.60;99.90
5621;DHT22;2832;50.864;12.186;2022-11-23T15:15:29;9.60;99.90
5621;DHT22;2832;50.864;12.186;2022-11-23T15:17:59;9.50;99.90
5621;DHT22;2832;50.864;12.186;2022-11-23T15:20:29;9.60;99.90
5621;DHT22;2832;50.864;12.186;2022-11-23T15:23:00;9.60;99.90
5621;DHT22;2832;50.864;12.186;2022-11-23T15:25:30;9.60;99.90
5621;DHT22;2832;50.864;12.186;2022-11-23T15:27:58;9.70;99.90
5621;DHT22;2832;50.864;12.186;2022-11-23T15:30:28;9.60;99.90
5621;DHT22;2832;50.864;12.186;2022-11-23T15:32:58;9.70;99.90
5621;DHT22;2832;50.864;12.186;2022-11-23T15:35:30;9.70;99.90
5621;DHT22;2832;50.864;12.186;2022-11-23T15:37:59;9.70;99.90
5621;DHT22;2832;50.864;12.186;2022-11-23T15:40:31;9.80;99.90
5621;DHT22;2832;50.864;12.186;2022-11-23T15:42:59;9.70;99.90
5621;DHT22;2832;50.864;12.186;2022-11-23T15:45:35;9.80;99.90
5621;DHT22;2832;50.864;12.186;2022-11-23T15:48:05;9.80;99.90
5621;DHT22;2832;50.864;12.186;2022-11-23T15:50:35;9.80;99.90
5621;DHT22;2832;50.864;12.186;2022-11-23T15:53:14;9.80;99.90
5621;DHT22;2832;50.864;12.186;2022-11-23T15:55:43;9.80;99.90
5621;DHT22;2832;50.864;12.186;2022-11-23T15:58:14;9.80;99.90
5621;DHT22;2832;50.864;12.186;2022-11-23T16:00:48;9.80;99.90
5621;DHT22;2832;50.864;12.186;2022-11-23T16:03:32;9.80;99.90
5621;DHT22;2832;50.864;12.186;2022-11-23T16:06:18;9.80;99.90
5621;DHT22;2832;50.864;12.186;2022-11-23T16:08:46;9.80;99.90
5621;DHT22;2832;50.864;12.186;2022-11-23T16:11:30;9.80;99.90
5621;DHT22;2832;50.864;12.186;2022-11-23T16:14:12;9.70;99.90
5621;DHT22;2832;50.864;12.186;2022-11-23T16:16:41;9.80;99.90
5621;DHT22;2832;50.864;12.186;2022-11-23T16:19:26;9.80;99.90
5621;DHT22;2832;50.864;12.186;2022-11-23T16:21:58;9.80;99.90
5621;DHT22;2832;50.864;12.186;2022-11-23T16:24:28;9.90;99.90
5621;DHT22;2832;50.864;12.186;2022-11-23T16:26:59;9.90;99.90
5621;DHT22;2832;50.864;12.186;2022-11-23T16:29:31;9.90;99.90
5621;DHT22;2832;50.864;12.186;2022-11-23T16:32:02;9.90;99.90
5621;DHT22;2832;50.864;12.186;2022-11-23T16:34:32;9.90;99.90
5621;DHT22;2832;50.864;12.186;2022-11-23T16:37:02;9.90;99.90
5621;DHT22;2832;50.864;12.186;2022-11-23T16:39:31;9.90;99.90
5621;DHT22;2832;50.864;12.186;2022-11-23T16:42:00;10.00;99.90
5621;DHT22;2832;50.864;12.186;2022-11-23T16:44:29;10.00;99.90
5621;DHT22;2832;50.864;12.186;2022-11-23T16:47:17;10.00;99.90
5621;DHT22;2832;50.864;12.186;2022-11-23T16:49:46;10.00;99.90
5621;DHT22;2832;50.864;12.186;2022-11-23T16:52:14;10.00;99.90
5621;DHT22;2832;50.864;12.186;2022-11-23T16:54:42;10.00;99.90
5621;DHT22;2832;50.864;12.186;2022-11-23T16:57:25;10.00;99.90
5621;DHT22;2832;50.864;12.186;2022-11-23T16:59:54;9.90;99.90
5621;DHT22;2832;50.864;12.186;2022-11-23T17:02:22;10.00;99.90
5621;DHT22;2832;50.864;12.186;2022-11-23T17:04:50;9.90;99.90
5621;DHT22;2832;50.864;12.186;2022-11-23T17:07:19;9.90;99.90
5621;DHT22;2832;50.864;12.186;2022-11-23T17:09:47;9.90;99.90
5621;DHT22;2832;50.864;12.186;2022-11-23T17:12:17;10.00;99.90